Time;durP1;ratioP1;P1;durP2;ratioP2;P2;SDS_P1;SDS_P2;PMS_P1;PMS_P2;Temp;Humidity;BMP_temperature;BMP_pressure;BME280_temperature;BME280_humidity;BME280_pressure;Samples;Min_cycle;Max_cycle;Signal;HPM_P1;HPM_P2
2021/09/17 00:00:06;;;;;;;13.05;4.63;;;;;;;21.70;46.41;101546.25;4994413;28;20030;-61
2021/09/17 00:02:32;;;;;;;7.07;4.72;;;;;;;21.70;46.47;101540.78;4992996;28;20475;-61
2021/09/17 00:04:57;;;;;;;6.30;4.15;;;;;;;21.70;46.55;101538.06;4994594;28;20041;-61
2021/09/17 00:07:23;;;;;;;6.72;4.72;;;;;;;21.67;46.50;101530.25;4994597;28;20034;-60
2021/09/17 00:09:49;;;;;;;6.82;3.60;;;;;;;21.65;46.70;101535.91;4994336;28;20029;-60
2021/09/17 00:12:15;;;;;;;6.68;3.80;;;;;;;21.65;47.02;101535.03;5009869;28;20093;-61
2021/09/17 00:14:41;;;;;;;5.63;3.10;;;;;;;21.58;46.04;101531.38;4997652;28;20026;-61
2021/09/17 00:17:07;;;;;;;4.93;3.13;;;;;;;21.59;46.77;101527.59;5013632;28;20032;-61
2021/09/17 00:19:32;;;;;;;3.95;2.88;;;;;;;21.58;46.22;101536.84;4998781;28;20471;-61
2021/09/17 00:21:59;;;;;;;2.83;2.38;;;;;;;21.53;46.60;101525.59;4997202;28;20038;-60
2021/09/17 00:24:24;;;;;;;6.68;4.15;;;;;;;21.54;47.16;101538.22;4998254;28;20454;-60
2021/09/17 00:26:50;;;;;;;4.10;3.15;;;;;;;21.51;46.82;101530.41;4998209;28;20050;-61
2021/09/17 00:29:15;;;;;;;3.65;2.75;;;;;;;21.50;46.84;101534.16;4998029;28;20065;-61
2021/09/17 00:31:41;;;;;;;9.45;3.42;;;;;;;21.45;47.17;101530.09;4998141;28;20034;-61
2021/09/17 00:34:07;;;;;;;4.38;3.25;;;;;;;21.44;46.73;101531.13;4998255;28;20022;-61
2021/09/17 00:36:33;;;;;;;7.13;3.38;;;;;;;21.42;47.27;101532.34;4999065;28;20026;-61
2021/09/17 00:38:58;;;;;;;6.18;3.67;;;;;;;21.39;47.05;101522.66;4998467;28;20026;-61
2021/09/17 00:41:24;;;;;;;5.95;4.00;;;;;;;21.38;47.48;101526.41;4998305;28;20037;-61
2021/09/17 00:43:49;;;;;;;5.38;3.88;;;;;;;21.36;46.89;101528.47;4998412;28;20029;-60
2021/09/17 00:46:15;;;;;;;5.93;4.15;;;;;;;21.35;47.41;101526.78;4998401;28;20030;-60
2021/09/17 00:48:40;;;;;;;5.40;3.70;;;;;;;21.33;46.93;101527.97;4998561;28;20056;-61
2021/09/17 00:51:06;;;;;;;6.35;3.58;;;;;;;21.31;47.36;101521.88;4997902;28;20026;-61
2021/09/17 00:53:33;;;;;;;4.00;3.30;;;;;;;21.30;47.17;101529.19;4998355;28;20105;-61
2021/09/17 00:56:01;;;;;;;5.88;4.32;;;;;;;21.29;47.20;101524.78;5004392;28;20125;-60
2021/09/17 00:58:27;;;;;;;6.88;4.20;;;;;;;21.31;47.16;101517.25;5017651;28;20022;-61
2021/09/17 01:00:53;;;;;;;6.47;4.45;;;;;;;21.29;46.92;101516.59;5017523;28;20153;-60
2021/09/17 01:03:18;;;;;;;8.50;5.32;;;;;;;21.32;47.06;101516.25;5017784;28;20045;-60
2021/09/17 01:05:43;;;;;;;7.78;5.07;;;;;;;21.34;47.18;101519.63;5017712;28;20069;-60
2021/09/17 01:08:09;;;;;;;8.48;5.63;;;;;;;21.34;47.32;101505.16;5017459;28;20029;-60
2021/09/17 01:10:35;;;;;;;8.02;5.75;;;;;;;21.36;47.62;101505.81;5000418;28;20022;-61
2021/09/17 01:13:01;;;;;;;8.48;5.55;;;;;;;21.42;47.64;101515.97;5017009;28;20114;-60
2021/09/17 01:15:27;;;;;;;8.10;5.90;;;;;;;21.43;47.84;101513.09;4999928;28;20435;-61
2021/09/17 01:17:52;;;;;;;11.75;6.15;;;;;;;21.45;47.86;101505.56;5017045;28;20049;-61
2021/09/17 01:20:19;;;;;;;7.50;5.68;;;;;;;21.47;47.70;101497.19;5016888;28;20030;-60
2021/09/17 01:22:46;;;;;;;14.73;6.20;;;;;;;21.47;47.22;101508.94;5016866;28;20026;-61
2021/09/17 01:25:16;;;;;;;16.10;6.28;;;;;;;21.51;47.50;101500.41;5015312;28;20041;-61
2021/09/17 01:27:43;;;;;;;9.75;5.80;;;;;;;21.58;47.65;101506.84;5016798;28;20034;-60
2021/09/17 01:30:09;;;;;;;7.57;5.32;;;;;;;21.58;47.62;101499.47;5016578;28;20101;-60
2021/09/17 01:32:34;;;;;;;11.25;7.43;;;;;;;21.63;47.92;101504.41;5016353;28;20096;-60
2021/09/17 01:35:00;;;;;;;11.65;7.13;;;;;;;21.64;48.20;101489.72;5016266;28;20403;-61
2021/09/17 01:37:25;;;;;;;10.93;6.30;;;;;;;21.67;48.50;101498.38;5016466;28;20029;-60
2021/09/17 01:39:51;;;;;;;9.35;6.30;;;;;;;21.70;47.86;101486.25;5016290;28;20390;-60
2021/09/17 01:42:16;;;;;;;15.85;6.75;;;;;;;21.71;48.42;101483.34;5016094;28;20025;-61
2021/09/17 01:44:42;;;;;;;13.32;7.15;;;;;;;21.79;48.42;101490.59;5016113;28;20061;-60
2021/09/17 01:47:08;;;;;;;12.73;6.60;;;;;;;21.77;47.70;101485.34;5015862;28;20041;-61
2021/09/17 01:49:34;;;;;;;10.13;5.88;;;;;;;21.84;48.69;101489.00;5015780;28;20033;-61
2021/09/17 01:52:00;;;;;;;14.88;7.15;;;;;;;21.90;48.06;101487.44;5005168;28;20467;-61
2021/09/17 01:54:26;;;;;;;14.82;7.93;;;;;;;21.94;48.05;101483.31;4996332;28;20030;-61
2021/09/17 01:56:52;;;;;;;14.25;7.13;;;;;;;21.98;48.32;101479.16;4996246;28;20062;-61
2021/09/17 01:59:17;;;;;;;14.25;6.15;;;;;;;21.98;48.60;101468.25;4996050;28;20518;-60
2021/09/17 02:01:43;;;;;;;11.38;6.80;;;;;;;22.07;48.40;101474.47;4995923;28;20037;-61
2021/09/17 02:04:08;;;;;;;12.32;6.55;;;;;;;22.11;48.63;101465.69;4996088;28;20027;-61
2021/09/17 02:06:34;;;;;;;14.60;6.10;;;;;;;22.14;48.31;101468.06;4996305;28;20042;-61
2021/09/17 02:09:01;;;;;;;10.40;6.18;;;;;;;22.19;48.93;101464.78;4996122;28;20033;-62
2021/09/17 02:11:27;;;;;;;13.77;7.40;;;;;;;22.21;48.79;101458.09;4996273;28;20026;-61
2021/09/17 02:13:52;;;;;;;17.67;7.50;;;;;;;22.28;48.93;101469.94;4996192;28;20450;-61
2021/09/17 02:16:18;;;;;;;14.27;7.30;;;;;;;22.32;48.12;101454.88;4996277;28;20033;-61
2021/09/17 02:18:43;;;;;;;13.75;7.03;;;;;;;22.36;48.00;101449.91;5010954;28;20022;-62
2021/09/17 02:21:09;;;;;;;15.77;7.95;;;;;;;22.40;48.32;101456.66;4995493;28;20026;-61
2021/09/17 02:23:35;;;;;;;11.77;6.80;;;;;;;22.44;48.56;101457.97;4995981;28;20029;-61
2021/09/17 02:26:00;;;;;;;11.70;7.05;;;;;;;22.46;48.65;101448.56;4995499;28;20022;-61
2021/09/17 02:28:26;;;;;;;13.02;7.05;;;;;;;22.52;48.30;101455.97;4995419;28;20038;-61
2021/09/17 02:30:51;;;;;;;12.05;7.32;;;;;;;22.56;48.04;101459.16;4995477;28;20430;-61
2021/09/17 02:33:17;;;;;;;14.02;7.57;;;;;;;22.59;49.09;101448.69;4995450;28;20026;-61
2021/09/17 02:35:42;;;;;;;17.48;7.30;;;;;;;22.62;48.21;101440.13;4994814;28;20034;-62
2021/09/17 02:38:08;;;;;;;10.55;7.03;;;;;;;22.61;48.82;101441.16;4995350;28;20030;-62
2021/09/17 02:40:34;;;;;;;14.55;8.10;;;;;;;22.67;48.79;101446.94;4995288;28;20479;-62
2021/09/17 02:43:00;;;;;;;15.85;8.80;;;;;;;22.71;48.21;101448.22;4995406;28;20027;-62
2021/09/17 02:45:25;;;;;;;16.10;8.18;;;;;;;22.72;49.14;101433.53;4995369;28;20053;-62
2021/09/17 02:47:51;;;;;;;11.57;7.40;;;;;;;22.72;48.18;101436.28;4995392;28;20026;-62
2021/09/17 02:50:16;;;;;;;13.52;7.53;;;;;;;22.71;49.20;101431.84;4995260;28;20030;-62
2021/09/17 02:52:42;;;;;;;13.15;6.50;;;;;;;22.72;49.16;101434.41;4995049;28;20030;-62
2021/09/17 02:55:09;;;;;;;12.60;7.45;;;;;;;22.76;48.39;101429.38;4995018;28;20026;-62
2021/09/17 02:57:36;;;;;;;13.48;6.82;;;;;;;22.76;49.31;101440.28;4993635;28;20058;-62
2021/09/17 03:00:08;;;;;;;13.52;8.18;;;;;;;22.77;49.43;101436.53;4994927;28;20065;-62
2021/09/17 03:02:33;;;;;;;13.27;8.25;;;;;;;22.75;49.01;101425.81;4994899;28;20026;-62
2021/09/17 03:04:59;;;;;;;16.20;8.43;;;;;;;22.80;49.24;101422.50;4993922;28;20037;-62
2021/09/17 03:07:24;;;;;;;15.10;8.30;;;;;;;22.80;48.63;101417.03;4994716;28;20453;-62
2021/09/17 03:09:50;;;;;;;14.82;8.70;;;;;;;22.79;48.80;101421.63;4994837;28;20371;-62
2021/09/17 03:12:15;;;;;;;14.27;7.63;;;;;;;22.78;48.43;101421.84;4994855;28;20030;-62
2021/09/17 03:14:41;;;;;;;14.00;7.78;;;;;;;22.80;48.54;101419.75;4994635;28;20084;-62
2021/09/17 03:17:07;;;;;;;10.90;7.28;;;;;;;22.80;49.00;101417.88;4994876;28;20034;-62
2021/09/17 03:19:32;;;;;;;14.32;7.65;;;;;;;22.81;49.01;101416.00;4994926;28;20481;-62
2021/09/17 03:22:00;;;;;;;14.88;7.88;;;;;;;22.79;49.36;101413.44;4994750;28;20034;-62
2021/09/17 03:24:27;;;;;;;15.20;8.27;;;;;;;22.82;49.36;101417.66;4994651;28;20034;-62
2021/09/17 03:26:53;;;;;;;16.35;8.27;;;;;;;22.82;49.55;101406.75;4994589;28;20022;-62
2021/09/17 03:29:18;;;;;;;20.05;9.05;;;;;;;22.79;49.08;101404.38;4994745;28;20072;-62
2021/09/17 03:31:44;;;;;;;13.15;8.88;;;;;;;22.84;48.85;101407.38;4994581;28;20026;-62
2021/09/17 03:34:09;;;;;;;13.32;7.82;;;;;;;22.81;48.73;101397.69;4994776;28;20056;-62
2021/09/17 03:36:42;;;;;;;15.13;8.18;;;;;;;22.86;49.30;101408.06;4994812;28;20097;-62
2021/09/17 03:39:08;;;;;;;17.60;8.35;;;;;;;22.87;48.55;101407.00;4994526;28;20447;-62
2021/09/17 03:41:33;;;;;;;19.05;8.88;;;;;;;22.88;49.36;101408.69;4994616;28;20069;-62
2021/09/17 03:43:59;;;;;;;17.40;8.77;;;;;;;22.89;49.48;101410.41;4994726;28;20423;-62
2021/09/17 03:46:24;;;;;;;12.68;7.93;;;;;;;22.88;48.94;101405.97;4993079;28;20034;-62
2021/09/17 03:48:50;;;;;;;14.80;8.38;;;;;;;22.90;49.60;101410.19;4993510;28;20029;-62
2021/09/17 03:51:16;;;;;;;14.30;8.20;;;;;;;22.91;49.09;101405.56;4994679;28;20107;-62
2021/09/17 03:53:41;;;;;;;18.08;9.25;;;;;;;22.95;49.37;101415.06;4994553;28;20034;-62
2021/09/17 03:56:07;;;;;;;15.80;8.75;;;;;;;22.93;49.54;101403.47;4993906;28;20462;-62
2021/09/17 03:58:33;;;;;;;16.17;8.07;;;;;;;22.97;49.05;101410.25;4994091;28;20079;-62
2021/09/17 04:00:58;;;;;;;17.35;8.02;;;;;;;22.94;48.94;101397.00;4993932;28;20077;-62
2021/09/17 04:03:24;;;;;;;13.20;8.65;;;;;;;22.98;48.66;101395.53;4994355;28;20156;-62
2021/09/17 04:05:49;;;;;;;16.85;8.48;;;;;;;23.00;49.39;101393.47;4994364;28;20096;-62
2021/09/17 04:08:15;;;;;;;17.65;9.00;;;;;;;23.00;48.59;101398.94;4994119;28;20031;-62
2021/09/17 04:10:40;;;;;;;15.95;8.05;;;;;;;22.99;48.65;101398.09;4994092;28;20022;-62
2021/09/17 04:13:06;;;;;;;14.43;8.80;;;;;;;22.98;49.32;101396.38;4994235;28;20022;-62
2021/09/17 04:15:31;;;;;;;22.20;9.07;;;;;;;23.00;48.31;101399.75;4994044;28;20080;-62
2021/09/17 04:17:57;;;;;;;16.95;8.75;;;;;;;23.00;48.83;101398.94;4994246;28;20030;-62
2021/09/17 04:20:22;;;;;;;16.23;7.80;;;;;;;22.98;48.67;101395.53;4994037;28;20022;-62
2021/09/17 04:22:48;;;;;;;19.10;9.68;;;;;;;22.98;48.67;101385.47;4994000;28;20447;-62
2021/09/17 04:25:13;;;;;;;14.43;8.23;;;;;;;22.99;49.47;101389.03;4993947;28;20022;-62
2021/09/17 04:27:40;;;;;;;16.55;9.90;;;;;;;22.99;49.10;101391.78;4993758;28;20030;-62
2021/09/17 04:30:08;;;;;;;15.32;9.30;;;;;;;22.96;48.94;101383.97;4993773;28;20015;-62
2021/09/17 04:32:34;;;;;;;15.60;8.38;;;;;;;23.00;49.61;101391.56;4994094;28;20061;-62
2021/09/17 04:34:59;;;;;;;18.58;8.95;;;;;;;23.02;48.49;101396.84;4992776;28;20411;-62
2021/09/17 04:37:25;;;;;;;18.05;9.30;;;;;;;23.00;49.35;101382.53;4993829;28;20475;-62
2021/09/17 04:39:51;;;;;;;20.15;8.95;;;;;;;23.03;48.52;101393.09;4993870;28;20022;-62
2021/09/17 04:42:16;;;;;;;13.68;8.38;;;;;;;23.04;48.97;101384.69;5009437;28;20029;-62
2021/09/17 04:44:42;;;;;;;25.80;8.25;;;;;;;23.04;48.48;101383.81;4993802;28;20494;-62
2021/09/17 04:47:07;;;;;;;13.02;8.88;;;;;;;23.07;49.01;101388.91;4994290;28;20038;-62
2021/09/17 04:49:33;;;;;;;20.73;10.48;;;;;;;23.02;49.25;101380.44;4993749;28;20023;-62
2021/09/17 04:51:58;;;;;;;15.20;10.02;;;;;;;23.04;48.44;101390.16;5009222;28;20130;-62
2021/09/17 04:54:24;;;;;;;15.75;9.13;;;;;;;23.04;49.18;101386.56;4993861;28;20018;-62
2021/09/17 04:56:49;;;;;;;17.17;9.45;;;;;;;23.02;49.36;101392.22;4991672;28;20369;-62
2021/09/17 04:59:15;;;;;;;18.85;9.57;;;;;;;23.01;48.29;101390.53;4995046;28;20042;-62
2021/09/17 05:01:40;;;;;;;17.92;10.00;;;;;;;23.01;49.42;101384.22;4997112;28;20040;-62
2021/09/17 05:04:06;;;;;;;16.80;10.15;;;;;;;23.00;48.42;101391.56;4997288;28;20037;-62
2021/09/17 05:06:32;;;;;;;16.77;8.45;;;;;;;23.02;48.67;101399.59;4996208;28;20116;-62
2021/09/17 05:08:58;;;;;;;16.13;9.82;;;;;;;22.98;48.40;101385.47;4996118;28;20034;-62
2021/09/17 05:11:23;;;;;;;17.85;10.48;;;;;;;23.04;48.85;101394.75;4997158;28;20076;-62
2021/09/17 05:13:49;;;;;;;17.70;9.63;;;;;;;23.03;49.07;101395.81;4996656;28;20022;-62
2021/09/17 05:16:14;;;;;;;18.25;9.90;;;;;;;23.05;49.23;101393.72;4996563;28;20023;-62
2021/09/17 05:18:40;;;;;;;16.75;8.60;;;;;;;23.04;49.45;101389.28;4996694;28;20054;-62
2021/09/17 05:21:05;;;;;;;21.17;9.38;;;;;;;23.05;49.24;101396.47;4995439;28;20395;-62
2021/09/17 05:23:31;;;;;;;18.45;10.65;;;;;;;23.01;49.08;101385.06;4996577;28;20088;-62
2021/09/17 05:25:56;;;;;;;15.98;9.48;;;;;;;23.03;48.23;101395.81;4996797;28;20073;-62
2021/09/17 05:28:22;;;;;;;14.73;9.52;;;;;;;23.00;49.42;101386.09;4997634;28;20026;-62
2021/09/17 05:30:48;;;;;;;18.98;9.98;;;;;;;23.02;49.04;101396.84;5015700;28;20026;-62
2021/09/17 05:33:13;;;;;;;17.15;9.18;;;;;;;23.03;49.08;101404.03;4999818;28;20062;-62
2021/09/17 05:35:39;;;;;;;14.98;9.20;;;;;;;23.05;49.47;101393.72;4999879;28;20022;-63
2021/09/17 05:38:04;;;;;;;21.48;10.05;;;;;;;23.04;49.02;101400.22;4999488;28;20022;-62
2021/09/17 05:40:35;;;;;;;13.77;9.00;;;;;;;23.02;49.53;101396.84;5000679;28;20026;-62
2021/09/17 05:43:00;;;;;;;16.42;9.13;;;;;;;23.08;48.94;101407.84;4997581;28;20434;-61
2021/09/17 05:45:26;;;;;;;18.55;9.02;;;;;;;23.09;49.44;101408.69;4996517;28;20026;-62
2021/09/17 05:47:52;;;;;;;16.85;8.55;;;;;;;23.11;49.07;101412.06;4996562;28;20042;-62
2021/09/17 05:50:17;;;;;;;15.05;8.55;;;;;;;23.10;49.07;101411.22;4995245;28;20117;-61
2021/09/17 05:52:43;;;;;;;11.60;7.22;;;;;;;23.11;49.10;101412.06;4995642;28;20038;-62
2021/09/17 05:55:09;;;;;;;13.60;7.97;;;;;;;23.10;49.24;101411.22;4996925;28;20479;-62
2021/09/17 05:57:35;;;;;;;12.90;7.20;;;;;;;23.10;48.17;101410.38;4996814;28;20564;-62
2021/09/17 06:00:00;;;;;;;14.10;7.13;;;;;;;23.09;48.33;101403.22;4996731;28;20113;-62
2021/09/17 06:02:26;;;;;;;10.32;6.78;;;;;;;23.09;48.28;101415.00;4996825;28;20399;-61
2021/09/17 06:04:51;;;;;;;16.60;7.80;;;;;;;23.08;48.20;101413.31;4997073;28;20038;-61
2021/09/17 06:07:17;;;;;;;12.85;6.93;;;;;;;23.10;49.21;101410.38;4996686;28;20030;-61
2021/09/17 06:09:42;;;;;;;11.80;6.97;;;;;;;23.13;48.13;101410.00;4996613;28;20029;-62
2021/09/17 06:12:08;;;;;;;14.50;6.95;;;;;;;23.17;49.34;101416.78;4994857;28;20117;-62
2021/09/17 06:14:33;;;;;;;13.13;6.65;;;;;;;23.19;49.03;101406.47;4996999;28;20034;-62
2021/09/17 06:16:59;;;;;;;15.43;7.53;;;;;;;23.21;48.27;101409.84;4996360;28;20026;-62
2021/09/17 06:19:25;;;;;;;13.13;6.93;;;;;;;23.23;48.22;101415.94;4991314;28;20081;-62
2021/09/17 06:21:50;;;;;;;12.05;6.85;;;;;;;23.25;48.25;101410.31;4976767;28;20034;-61
2021/09/17 06:24:16;;;;;;;11.68;7.00;;;;;;;23.27;48.15;101409.06;4976799;28;20357;-62
2021/09/17 06:26:41;;;;;;;10.05;7.28;;;;;;;23.29;47.93;101404.22;4976001;28;20057;-61
2021/09/17 06:29:08;;;;;;;14.23;8.25;;;;;;;23.31;48.94;101410.34;4992380;28;20030;-62
2021/09/17 06:31:35;;;;;;;10.32;7.05;;;;;;;23.35;48.77;101402.59;4994988;28;20018;-62
2021/09/17 06:34:01;;;;;;;15.45;6.85;;;;;;;23.37;48.82;101406.81;4996129;28;20058;-62
2021/09/17 06:36:26;;;;;;;12.15;6.63;;;;;;;23.37;47.87;101406.81;4995905;28;20045;-62
2021/09/17 06:38:52;;;;;;;9.77;6.65;;;;;;;23.39;48.42;101403.94;4995204;28;20037;-61
2021/09/17 06:41:18;;;;;;;14.13;7.05;;;;;;;23.38;48.15;101392.16;4994862;28;20049;-61
2021/09/17 06:43:43;;;;;;;12.15;7.30;;;;;;;23.44;48.56;101404.16;4995748;28;20030;-62
2021/09/17 06:46:09;;;;;;;15.60;7.15;;;;;;;23.46;47.76;101400.19;4996131;28;20104;-61
2021/09/17 06:48:34;;;;;;;14.25;7.38;;;;;;;23.50;48.65;101404.22;4995806;28;20034;-61
2021/09/17 06:51:01;;;;;;;12.52;7.28;;;;;;;23.53;48.56;101403.84;4995650;28;20034;-61
2021/09/17 06:53:26;;;;;;;14.13;7.80;;;;;;;23.55;47.55;101400.88;4996141;28;20036;-61
2021/09/17 06:55:52;;;;;;;11.10;6.97;;;;;;;23.57;48.04;101407.84;4995392;28;20418;-62
2021/09/17 06:58:18;;;;;;;13.52;7.13;;;;;;;23.56;47.45;101408.88;4994502;28;20023;-61
2021/09/17 07:00:43;;;;;;;12.20;7.85;;;;;;;23.57;48.43;101407.84;4994730;28;20129;-61
2021/09/17 07:03:09;;;;;;;15.05;7.53;;;;;;;23.59;47.41;101405.75;4995362;28;20062;-62
2021/09/17 07:05:35;;;;;;;12.50;7.40;;;;;;;23.60;47.91;101396.50;4995830;28;20052;-62
2021/09/17 07:08:05;;;;;;;12.82;7.05;;;;;;;23.63;48.03;101404.31;4994689;28;20432;-61
2021/09/17 07:10:32;;;;;;;13.30;7.10;;;;;;;23.66;48.27;101401.19;4995438;28;20021;-62
2021/09/17 07:12:58;;;;;;;12.00;7.25;;;;;;;23.68;48.30;101393.59;4977819;28;20030;-62
2021/09/17 07:15:24;;;;;;;14.68;7.57;;;;;;;23.73;48.28;101395.72;4995220;28;20034;-61
2021/09/17 07:17:49;;;;;;;16.60;7.30;;;;;;;23.76;48.14;101389.88;4994027;28;20022;-61
2021/09/17 07:20:15;;;;;;;11.40;7.95;;;;;;;23.77;48.03;101378.72;4994138;28;20060;-61
2021/09/17 07:22:41;;;;;;;15.68;6.97;;;;;;;23.80;47.42;101384.84;5010476;28;20030;-61
2021/09/17 07:25:07;;;;;;;13.48;7.20;;;;;;;23.87;47.56;101392.03;4995174;28;20116;-61
2021/09/17 07:27:32;;;;;;;11.70;7.35;;;;;;;23.94;47.14;101397.56;4994897;28;20475;-61
2021/09/17 07:29:58;;;;;;;16.48;7.53;;;;;;;23.99;47.73;101386.81;4995010;28;20023;-61
2021/09/17 07:32:24;;;;;;;14.30;7.35;;;;;;;24.04;46.94;101387.06;4994109;28;20106;-61
2021/09/17 07:34:49;;;;;;;13.57;7.82;;;;;;;24.10;47.90;101386.28;4994760;28;20029;-61
2021/09/17 07:37:15;;;;;;;13.40;7.43;;;;;;;24.14;47.90;101387.56;4994721;28;20049;-61
2021/09/17 07:39:40;;;;;;;16.20;8.65;;;;;;;24.20;46.83;101381.28;4994641;28;20498;-62
2021/09/17 07:42:07;;;;;;;13.60;7.72;;;;;;;24.25;47.58;101387.00;4995022;28;20368;-62
2021/09/17 07:44:37;;;;;;;15.20;8.30;;;;;;;24.29;47.78;101391.00;4994888;28;20061;-61
2021/09/17 07:47:05;;;;;;;14.55;7.60;;;;;;;24.30;46.74;101387.22;4994952;28;20041;-61
2021/09/17 07:49:32;;;;;;;15.85;8.25;;;;;;;24.32;47.11;101385.09;4993898;28;20022;-61
2021/09/17 07:51:57;;;;;;;16.30;8.00;;;;;;;24.31;47.05;101383.44;4994641;28;20028;-62
2021/09/17 07:54:24;;;;;;;15.73;7.53;;;;;;;24.37;46.66;101388.09;4994278;28;20027;-61
2021/09/17 07:56:50;;;;;;;18.42;8.63;;;;;;;24.41;47.26;101385.78;4994053;28;20046;-62
2021/09/17 07:59:16;;;;;;;16.23;8.27;;;;;;;24.48;46.95;101386.66;4994517;28;20035;-62
2021/09/17 08:01:41;;;;;;;24.35;8.57;;;;;;;24.54;47.50;101386.66;4994246;28;20065;-62
2021/09/17 08:04:07;;;;;;;13.55;8.23;;;;;;;24.59;47.27;101386.91;4994468;28;20069;-61
2021/09/17 08:06:32;;;;;;;20.70;9.10;;;;;;;24.65;46.86;101388.78;4994647;28;20034;-61
2021/09/17 08:08:58;;;;;;;17.17;8.63;;;;;;;24.67;46.41;101378.47;4994170;28;20526;-62
2021/09/17 08:11:23;;;;;;;19.73;8.88;;;;;;;24.69;46.67;101378.25;4994283;28;20391;-62
2021/09/17 08:13:49;;;;;;;17.70;9.45;;;;;;;24.74;46.44;101384.81;4994238;28;20030;-62
2021/09/17 08:16:14;;;;;;;15.80;9.35;;;;;;;24.81;46.33;101380.22;4994073;28;20027;-61
2021/09/17 08:18:40;;;;;;;18.00;9.45;;;;;;;24.88;46.91;101380.22;4994440;28;20030;-61
2021/09/17 08:21:05;;;;;;;21.60;9.82;;;;;;;24.92;46.54;101380.66;4993870;28;20026;-62
2021/09/17 08:23:31;;;;;;;21.23;9.60;;;;;;;24.95;46.82;101377.50;4994225;28;20057;-62
2021/09/17 08:25:57;;;;;;;21.27;10.15;;;;;;;25.01;46.53;101373.91;4994009;28;20479;-61
2021/09/17 08:28:23;;;;;;;20.98;10.57;;;;;;;25.07;45.96;101379.38;4994004;28;20100;-62
2021/09/17 08:30:50;;;;;;;23.35;9.68;;;;;;;25.17;46.15;101379.81;4994048;28;20026;-62
2021/09/17 08:33:15;;;;;;;23.40;11.25;;;;;;;25.31;46.18;101386.16;4994207;28;20026;-62
2021/09/17 08:35:41;;;;;;;19.98;11.07;;;;;;;25.41;46.21;101376.44;4998100;28;20532;-61
2021/09/17 08:38:06;;;;;;;23.98;10.55;;;;;;;25.54;46.28;101377.50;4997698;28;20026;-62
2021/09/17 08:40:32;;;;;;;25.00;11.88;;;;;;;25.65;46.05;101380.44;4997565;28;20065;-62
2021/09/17 08:43:00;;;;;;;18.80;11.82;;;;;;;25.79;46.07;101384.00;4997930;28;20030;-62
2021/09/17 08:45:26;;;;;;;18.27;10.35;;;;;;;25.91;45.81;101385.84;4997726;28;20034;-61
2021/09/17 08:47:52;;;;;;;26.48;11.00;;;;;;;26.05;45.52;101389.38;4997782;28;20513;-62
2021/09/17 08:50:19;;;;;;;26.52;12.18;;;;;;;26.21;45.50;101388.13;4997786;28;20026;-60
2021/09/17 08:52:45;;;;;;;25.65;12.80;;;;;;;26.35;45.65;101387.00;4997721;28;20026;-60
2021/09/17 08:55:11;;;;;;;27.00;12.70;;;;;;;26.53;45.41;101387.09;4997677;28;20065;-60
2021/09/17 08:57:36;;;;;;;28.98;13.60;;;;;;;26.65;45.02;101385.34;4997362;28;20069;-60
2021/09/17 09:00:04;;;;;;;34.92;14.80;;;;;;;26.76;45.02;101386.53;4997428;28;20379;-59
2021/09/17 09:02:29;;;;;;;29.83;13.30;;;;;;;26.88;44.68;101377.41;4997537;28;20480;-60
2021/09/17 09:05:06;;;;;;;21.98;13.15;;;;;;;27.00;44.52;101383.00;4997860;28;20092;-59
2021/09/17 09:07:40;;;;;;;22.05;12.20;;;;;;;27.12;43.90;101387.56;4997529;28;20053;-60
2021/09/17 09:10:07;;;;;;;25.85;12.73;;;;;;;27.27;44.65;101389.13;4998078;28;20057;-60
2021/09/17 09:12:33;;;;;;;30.50;13.23;;;;;;;27.42;44.55;101384.16;4997306;28;20229;-60
2021/09/17 09:15:13;;;;;;;24.40;11.93;;;;;;;27.55;44.59;101390.41;4995930;28;20134;-60
2021/09/17 09:17:39;;;;;;;27.15;12.90;;;;;;;27.73;43.46;101389.56;4997363;28;20026;-59
2021/09/17 09:20:27;;;;;;;19.50;11.85;;;;;;;27.92;44.04;101391.25;4997085;28;20117;-60
2021/09/17 09:23:12;;;;;;;24.48;12.38;;;;;;;28.09;42.92;101394.25;4997461;28;20026;-59
2021/09/17 09:26:05;;;;;;;22.52;12.75;;;;;;;28.25;43.76;101383.44;4997816;28;20035;-60
2021/09/17 09:28:46;;;;;;;21.02;11.75;;;;;;;28.62;43.11;101383.38;4996667;28;20061;-60
2021/09/17 09:31:16;;;;;;;24.15;11.88;;;;;;;28.97;41.93;101375.25;4996432;28;20034;-59
2021/09/17 09:33:46;;;;;;;22.85;12.00;;;;;;;29.22;42.73;101371.25;4997264;28;20118;-59
2021/09/17 09:36:14;;;;;;;23.60;11.65;;;;;;;29.36;42.61;101378.22;4995660;28;20037;-60
2021/09/17 09:38:45;;;;;;;22.30;12.10;;;;;;;29.54;41.98;101377.25;4997283;28;20030;-59
2021/09/17 09:41:20;;;;;;;22.67;13.02;;;;;;;30.87;39.69;101377.03;4997075;28;20022;-59
2021/09/17 09:43:48;;;;;;;21.48;12.68;;;;;;;31.07;39.57;101377.44;4996666;28;20034;-59
2021/09/17 09:46:32;;;;;;;26.45;13.73;;;;;;;31.48;38.94;101370.63;4996191;28;20045;-59
2021/09/17 09:49:07;;;;;;;23.25;12.63;;;;;;;31.65;39.38;101365.91;4996671;28;20030;-60
2021/09/17 09:51:35;;;;;;;23.63;12.65;;;;;;;32.04;39.56;101366.75;4996690;28;20022;-60
2021/09/17 09:54:03;;;;;;;19.77;11.85;;;;;;;32.51;38.29;101362.31;4996508;28;20105;-60
2021/09/17 09:56:33;;;;;;;22.90;12.10;;;;;;;33.04;37.64;101364.25;4996506;28;20046;-60
2021/09/17 09:59:02;;;;;;;21.42;12.50;;;;;;;33.47;37.87;101365.16;4996394;28;20390;-60
2021/09/17 10:01:29;;;;;;;22.85;12.65;;;;;;;33.95;37.30;101362.94;4996428;28;20511;-61
2021/09/17 10:03:58;;;;;;;19.45;10.45;;;;;;;34.36;35.93;101363.16;4996201;28;20058;-60
2021/09/17 10:06:25;;;;;;;15.90;10.15;;;;;;;34.78;35.96;101369.41;4996359;28;20034;-60
2021/09/17 10:08:53;;;;;;;22.80;12.55;;;;;;;35.24;34.89;101363.84;4996481;28;20023;-60
2021/09/17 10:11:19;;;;;;;22.80;12.98;;;;;;;35.73;34.70;101362.16;4996247;28;20428;-60
2021/09/17 10:13:44;;;;;;;19.23;11.00;;;;;;;35.99;34.38;101360.91;4996312;28;20062;-60
2021/09/17 10:16:10;;;;;;;19.90;12.43;;;;;;;36.34;33.84;101356.31;4996066;28;20040;-60
2021/09/17 10:18:37;;;;;;;21.52;11.27;;;;;;;36.39;34.18;101353.50;4994783;28;20117;-60
2021/09/17 10:21:02;;;;;;;19.40;11.75;;;;;;;36.34;34.02;101353.53;4994902;28;20038;-60
2021/09/17 10:23:30;;;;;;;21.15;11.52;;;;;;;36.00;34.28;101348.66;4996072;28;20399;-60
2021/09/17 10:25:59;;;;;;;15.85;10.98;;;;;;;35.28;35.05;101348.25;4995901;28;20031;-61
2021/09/17 10:28:24;;;;;;;18.48;11.80;;;;;;;35.56;34.57;101358.84;4994351;28;20444;-60
2021/09/17 10:30:50;;;;;;;23.23;12.35;;;;;;;35.38;34.26;101353.81;5011031;28;20101;-60
2021/09/17 10:33:22;;;;;;;19.25;12.43;;;;;;;35.16;33.92;101353.28;4995761;28;20395;-60
2021/09/17 10:35:48;;;;;;;18.67;12.57;;;;;;;35.01;33.88;101352.13;4995728;28;20414;-60
2021/09/17 10:38:26;;;;;;;18.25;11.52;;;;;;;34.53;34.58;101363.75;4995712;28;20105;-59
2021/09/17 10:41:04;;;;;;;21.17;12.60;;;;;;;35.01;33.49;101357.69;4995482;28;20054;-59
2021/09/17 10:43:36;;;;;;;18.50;11.23;;;;;;;34.40;35.17;101358.69;4995622;28;20022;-59
2021/09/17 10:46:31;;;;;;;16.58;11.18;;;;;;;34.29;34.07;101360.63;4995050;28;20034;-59
2021/09/17 10:48:57;;;;;;;16.45;10.55;;;;;;;34.07;34.89;101359.09;4990466;28;20046;-59
2021/09/17 10:51:36;;;;;;;18.13;10.77;;;;;;;33.70;35.67;101359.19;4995724;28;20410;-59
2021/09/17 10:54:06;;;;;;;15.07;9.18;;;;;;;33.52;34.40;101351.28;4995228;28;20076;-59
2021/09/17 10:57:02;;;;;;;14.02;8.55;;;;;;;33.37;35.23;101354.78;4993341;28;20534;-60
2021/09/17 10:59:39;;;;;;;12.50;7.68;;;;;;;33.31;34.24;101348.38;4982681;28;20034;-59
2021/09/17 11:02:06;;;;;;;11.13;6.70;;;;;;;33.57;35.16;101349.41;4994930;28;20049;-59
2021/09/17 11:04:45;;;;;;;14.73;8.30;;;;;;;34.25;33.05;101340.03;4994795;28;20030;-59
2021/09/17 11:07:20;;;;;;;12.88;7.13;;;;;;;34.08;33.52;101344.13;4995153;28;20393;-60
2021/09/17 11:09:53;;;;;;;13.73;8.10;;;;;;;34.90;32.18;101336.53;4995235;28;20045;-59
2021/09/17 11:12:22;;;;;;;10.90;7.30;;;;;;;34.30;34.05;101342.81;4993911;28;20022;-59
2021/09/17 11:15:14;;;;;;;12.75;7.93;;;;;;;33.82;34.05;101344.00;4994998;28;20080;-59